sensor_id;sensor_type;location;lat;lon;timestamp;P1;durP1;ratioP1;P2;durP2;ratioP2
56271;SDS011;42177;48.914;18.160;2022-09-29T00:03:58;3.1;;;2;;
56271;SDS011;42177;48.914;18.160;2022-09-29T00:08:58;3.1;;;2;;
56271;SDS011;42177;48.914;18.160;2022-09-29T00:13:58;4.3;;;2.1;;
56271;SDS011;42177;48.914;18.160;2022-09-29T00:18:58;4.3;;;2.1;;
56271;SDS011;42177;48.914;18.160;2022-09-29T00:23:59;3.5;;;1.8;;
56271;SDS011;42177;48.914;18.160;2022-09-29T00:28:58;3.5;;;1.8;;
56271;SDS011;42177;48.914;18.160;2022-09-29T00:33:58;3.4;;;1.7;;
56271;SDS011;42177;48.914;18.160;2022-09-29T00:38:58;3.4;;;1.7;;
56271;SDS011;42177;48.914;18.160;2022-09-29T00:43:59;1.9;;;1.4;;
56271;SDS011;42177;48.914;18.160;2022-09-29T00:49:00;1.9;;;1.4;;
56271;SDS011;42177;48.914;18.160;2022-09-29T00:53:58;3.1;;;1.6;;
56271;SDS011;42177;48.914;18.160;2022-09-29T00:58:59;3.1;;;1.6;;
56271;SDS011;42177;48.914;18.160;2022-09-29T01:04:00;4.5;;;1.7;;
56271;SDS011;42177;48.914;18.160;2022-09-29T01:08:59;4.5;;;1.7;;
56271;SDS011;42177;48.914;18.160;2022-09-29T01:13:59;2;;;1.4;;
56271;SDS011;42177;48.914;18.160;2022-09-29T01:18:59;2;;;1.4;;
56271;SDS011;42177;48.914;18.160;2022-09-29T01:24:07;3.4;;;1.9;;
56271;SDS011;42177;48.914;18.160;2022-09-29T01:29:35;3.4;;;1.9;;
56271;SDS011;42177;48.914;18.160;2022-09-29T01:33:59;2.5;;;2;;
56271;SDS011;42177;48.914;18.160;2022-09-29T01:39:00;2.5;;;2;;
56271;SDS011;42177;48.914;18.160;2022-09-29T01:44:01;2.5;;;1.9;;
56271;SDS011;42177;48.914;18.160;2022-09-29T01:48:59;2.5;;;1.9;;
56271;SDS011;42177;48.914;18.160;2022-09-29T01:53:59;5.1;;;2.1;;
56271;SDS011;42177;48.914;18.160;2022-09-29T01:58:59;5.1;;;2.1;;
56271;SDS011;42177;48.914;18.160;2022-09-29T02:03:59;2.6;;;2;;
56271;SDS011;42177;48.914;18.160;2022-09-29T02:08:58;2.6;;;2;;
56271;SDS011;42177;48.914;18.160;2022-09-29T02:14:00;3.6;;;2.2;;
56271;SDS011;42177;48.914;18.160;2022-09-29T02:19:01;3.6;;;2.2;;
56271;SDS011;42177;48.914;18.160;2022-09-29T02:23:58;5.6;;;2;;
56271;SDS011;42177;48.914;18.160;2022-09-29T02:28:58;5.6;;;2;;
56271;SDS011;42177;48.914;18.160;2022-09-29T02:33:58;3.9;;;2.1;;
56271;SDS011;42177;48.914;18.160;2022-09-29T02:39:00;3.9;;;2.1;;
56271;SDS011;42177;48.914;18.160;2022-09-29T02:44:18;5.3;;;2.2;;
56271;SDS011;42177;48.914;18.160;2022-09-29T02:49:04;5.3;;;2.2;;
56271;SDS011;42177;48.914;18.160;2022-09-29T02:54:00;7.2;;;2.4;;
56271;SDS011;42177;48.914;18.160;2022-09-29T02:58:59;7.2;;;2.4;;
56271;SDS011;42177;48.914;18.160;2022-09-29T03:03:59;4.8;;;2.5;;
56271;SDS011;42177;48.914;18.160;2022-09-29T03:08:58;4.8;;;2.5;;
56271;SDS011;42177;48.914;18.160;2022-09-29T03:13:59;5.2;;;2.5;;
56271;SDS011;42177;48.914;18.160;2022-09-29T03:18:58;5.2;;;2.5;;
56271;SDS011;42177;48.914;18.160;2022-09-29T03:23:59;4.6;;;2.3;;
56271;SDS011;42177;48.914;18.160;2022-09-29T03:28:59;4.6;;;2.3;;
56271;SDS011;42177;48.914;18.160;2022-09-29T03:33:58;4.7;;;2.6;;
56271;SDS011;42177;48.914;18.160;2022-09-29T03:38:58;4.7;;;2.6;;
56271;SDS011;42177;48.914;18.160;2022-09-29T03:43:58;5.7;;;2.2;;
56271;SDS011;42177;48.914;18.160;2022-09-29T03:48:58;5.7;;;2.2;;
56271;SDS011;42177;48.914;18.160;2022-09-29T03:53:58;6.4;;;2.9;;
56271;SDS011;42177;48.914;18.160;2022-09-29T03:58:59;6.4;;;2.9;;
56271;SDS011;42177;48.914;18.160;2022-09-29T04:03:58;4.2;;;2.3;;
56271;SDS011;42177;48.914;18.160;2022-09-29T04:08:58;4.2;;;2.3;;
56271;SDS011;42177;48.914;18.160;2022-09-29T04:13:58;8.1;;;2.7;;
56271;SDS011;42177;48.914;18.160;2022-09-29T04:18:58;8.1;;;2.7;;
56271;SDS011;42177;48.914;18.160;2022-09-29T04:23:58;6.2;;;3.2;;
56271;SDS011;42177;48.914;18.160;2022-09-29T04:28:58;6.2;;;3.2;;
56271;SDS011;42177;48.914;18.160;2022-09-29T04:33:58;7.4;;;3.3;;
56271;SDS011;42177;48.914;18.160;2022-09-29T04:38:58;7.4;;;3.3;;
56271;SDS011;42177;48.914;18.160;2022-09-29T04:43:58;3.9;;;3;;
56271;SDS011;42177;48.914;18.160;2022-09-29T04:48:58;3.9;;;3;;
56271;SDS011;42177;48.914;18.160;2022-09-29T04:53:58;8.1;;;3.1;;
56271;SDS011;42177;48.914;18.160;2022-09-29T04:58:58;8.1;;;3.1;;
56271;SDS011;42177;48.914;18.160;2022-09-29T05:03:58;4.1;;;2.7;;
56271;SDS011;42177;48.914;18.160;2022-09-29T05:08:58;4.1;;;2.7;;
56271;SDS011;42177;48.914;18.160;2022-09-29T05:13:58;5.1;;;2.1;;
56271;SDS011;42177;48.914;18.160;2022-09-29T05:18:58;5.1;;;2.1;;
56271;SDS011;42177;48.914;18.160;2022-09-29T05:23:58;5.8;;;3.6;;
56271;SDS011;42177;48.914;18.160;2022-09-29T05:28:58;5.8;;;3.6;;
56271;SDS011;42177;48.914;18.160;2022-09-29T05:33:58;6.1;;;4.5;;
56271;SDS011;42177;48.914;18.160;2022-09-29T05:38:58;6.1;;;4.5;;
56271;SDS011;42177;48.914;18.160;2022-09-29T05:43:58;4.2;;;3.4;;
56271;SDS011;42177;48.914;18.160;2022-09-29T05:48:58;4.2;;;3.4;;
56271;SDS011;42177;48.914;18.160;2022-09-29T05:53:58;5.7;;;2.7;;
56271;SDS011;42177;48.914;18.160;2022-09-29T05:58:58;5.7;;;2.7;;
56271;SDS011;42177;48.914;18.160;2022-09-29T06:03:58;4.8;;;2.7;;
56271;SDS011;42177;48.914;18.160;2022-09-29T06:08:59;4.8;;;2.7;;
56271;SDS011;42177;48.914;18.160;2022-09-29T06:13:58;5.4;;;4.3;;
56271;SDS011;42177;48.914;18.160;2022-09-29T06:18:59;5.4;;;4.3;;
56271;SDS011;42177;48.914;18.160;2022-09-29T06:23:58;3.7;;;2.4;;
56271;SDS011;42177;48.914;18.160;2022-09-29T06:28:58;3.7;;;2.4;;
56271;SDS011;42177;48.914;18.160;2022-09-29T06:33:59;5.3;;;2.6;;
56271;SDS011;42177;48.914;18.160;2022-09-29T06:38:58;5.3;;;2.6;;
56271;SDS011;42177;48.914;18.160;2022-09-29T06:43:59;4.7;;;3.1;;
56271;SDS011;42177;48.914;18.160;2022-09-29T06:48:58;4.7;;;3.1;;
56271;SDS011;42177;48.914;18.160;2022-09-29T06:53:58;5.4;;;2.9;;
56271;SDS011;42177;48.914;18.160;2022-09-29T06:58:58;5.4;;;2.9;;
56271;SDS011;42177;48.914;18.160;2022-09-29T07:03:59;5.9;;;3.3;;
56271;SDS011;42177;48.914;18.160;2022-09-29T07:08:58;5.9;;;3.3;;
56271;SDS011;42177;48.914;18.160;2022-09-29T07:13:58;5.5;;;3.4;;
56271;SDS011;42177;48.914;18.160;2022-09-29T07:18:58;5.5;;;3.4;;
56271;SDS011;42177;48.914;18.160;2022-09-29T07:23:59;4;;;3.1;;
56271;SDS011;42177;48.914;18.160;2022-09-29T07:28:59;4;;;3.1;;
56271;SDS011;42177;48.914;18.160;2022-09-29T07:33:58;3.9;;;3.5;;
56271;SDS011;42177;48.914;18.160;2022-09-29T07:38:58;3.9;;;3.5;;
56271;SDS011;42177;48.914;18.160;2022-09-29T07:43:58;6.3;;;3.5;;
56271;SDS011;42177;48.914;18.160;2022-09-29T07:48:58;6.3;;;3.5;;
56271;SDS011;42177;48.914;18.160;2022-09-29T07:54:00;9.5;;;4.1;;
56271;SDS011;42177;48.914;18.160;2022-09-29T07:58:58;9.5;;;4.1;;
56271;SDS011;42177;48.914;18.160;2022-09-29T08:03:58;5.2;;;3.6;;
56271;SDS011;42177;48.914;18.160;2022-09-29T08:08:59;5.2;;;3.6;;
56271;SDS011;42177;48.914;18.160;2022-09-29T08:13:58;5.5;;;3;;
56271;SDS011;42177;48.914;18.160;2022-09-29T08:18:59;5.5;;;3;;
56271;SDS011;42177;48.914;18.160;2022-09-29T08:23:58;4.1;;;2.5;;
56271;SDS011;42177;48.914;18.160;2022-09-29T08:28:58;4.1;;;2.5;;
56271;SDS011;42177;48.914;18.160;2022-09-29T08:33:58;5.9;;;2.3;;
56271;SDS011;42177;48.914;18.160;2022-09-29T08:38:58;5.9;;;2.3;;
56271;SDS011;42177;48.914;18.160;2022-09-29T08:43:59;2.2;;;1.6;;
56271;SDS011;42177;48.914;18.160;2022-09-29T08:48:58;2.2;;;1.6;;
56271;SDS011;42177;48.914;18.160;2022-09-29T08:54:01;2.7;;;1.4;;
56271;SDS011;42177;48.914;18.160;2022-09-29T08:58:58;2.7;;;1.4;;
56271;SDS011;42177;48.914;18.160;2022-09-29T09:04:01;4.5;;;1.8;;
56271;SDS011;42177;48.914;18.160;2022-09-29T09:09:10;4.5;;;1.8;;
56271;SDS011;42177;48.914;18.160;2022-09-29T09:14:01;4.3;;;1.7;;
56271;SDS011;42177;48.914;18.160;2022-09-29T09:19:02;4.3;;;1.7;;
56271;SDS011;42177;48.914;18.160;2022-09-29T09:24:00;3.2;;;1.6;;
56271;SDS011;42177;48.914;18.160;2022-09-29T09:28:59;3.2;;;1.6;;
56271;SDS011;42177;48.914;18.160;2022-09-29T09:33:59;3.2;;;1.2;;
56271;SDS011;42177;48.914;18.160;2022-09-29T09:39:00;3.2;;;1.2;;
56271;SDS011;42177;48.914;18.160;2022-09-29T09:44:00;2.1;;;1.2;;
56271;SDS011;42177;48.914;18.160;2022-09-29T09:49:00;2.1;;;1.2;;
56271;SDS011;42177;48.914;18.160;2022-09-29T09:53:59;3;;;1.4;;
56271;SDS011;42177;48.914;18.160;2022-09-29T09:59:02;3;;;1.4;;
56271;SDS011;42177;48.914;18.160;2022-09-29T10:03:58;2.2;;;1.2;;
56271;SDS011;42177;48.914;18.160;2022-09-29T10:08:58;2.2;;;1.2;;
56271;SDS011;42177;48.914;18.160;2022-09-29T10:13:59;1.1;;;0.8;;
56271;SDS011;42177;48.914;18.160;2022-09-29T10:18:59;1.1;;;0.8;;
56271;SDS011;42177;48.914;18.160;2022-09-29T10:23:58;1.8;;;0.6;;
56271;SDS011;42177;48.914;18.160;2022-09-29T10:28:59;1.8;;;0.6;;
56271;SDS011;42177;48.914;18.160;2022-09-29T10:33:59;1;;;0.9;;
56271;SDS011;42177;48.914;18.160;2022-09-29T10:38:58;1;;;0.9;;
56271;SDS011;42177;48.914;18.160;2022-09-29T10:44:13;2.4;;;1.1;;
56271;SDS011;42177;48.914;18.160;2022-09-29T10:49:07;2.4;;;1.1;;
56271;SDS011;42177;48.914;18.160;2022-09-29T10:53:58;1.6;;;0.8;;
56271;SDS011;42177;48.914;18.160;2022-09-29T10:58:59;1.6;;;0.8;;
56271;SDS011;42177;48.914;18.160;2022-09-29T11:03:59;1.2;;;0.8;;
56271;SDS011;42177;48.914;18.160;2022-09-29T11:08:59;1.2;;;0.8;;
56271;SDS011;42177;48.914;18.160;2022-09-29T11:13:58;1.3;;;0.9;;
56271;SDS011;42177;48.914;18.160;2022-09-29T11:19:00;1.3;;;0.9;;
56271;SDS011;42177;48.914;18.160;2022-09-29T11:23:59;1.3;;;0.9;;
56271;SDS011;42177;48.914;18.160;2022-09-29T11:29:04;1.3;;;0.9;;
56271;SDS011;42177;48.914;18.160;2022-09-29T11:34:03;1.6;;;0.9;;
56271;SDS011;42177;48.914;18.160;2022-09-29T11:39:01;1.6;;;0.9;;
56271;SDS011;42177;48.914;18.160;2022-09-29T11:44:00;1.7;;;0.9;;
56271;SDS011;42177;48.914;18.160;2022-09-29T11:49:04;1.7;;;0.9;;
56271;SDS011;42177;48.914;18.160;2022-09-29T11:54:02;1;;;1;;
56271;SDS011;42177;48.914;18.160;2022-09-29T11:59:03;1;;;1;;
56271;SDS011;42177;48.914;18.160;2022-09-29T12:04:02;1.4;;;0.9;;
56271;SDS011;42177;48.914;18.160;2022-09-29T12:09:01;1.4;;;0.9;;
56271;SDS011;42177;48.914;18.160;2022-09-29T12:14:00;2.2;;;0.9;;
56271;SDS011;42177;48.914;18.160;2022-09-29T12:18:59;2.2;;;0.9;;
56271;SDS011;42177;48.914;18.160;2022-09-29T12:23:59;1.8;;;0.8;;
56271;SDS011;42177;48.914;18.160;2022-09-29T12:29:00;1.8;;;0.8;;
56271;SDS011;42177;48.914;18.160;2022-09-29T12:33:59;2.3;;;1;;
56271;SDS011;42177;48.914;18.160;2022-09-29T12:38:59;2.3;;;1;;
56271;SDS011;42177;48.914;18.160;2022-09-29T12:43:59;4.3;;;1.2;;
56271;SDS011;42177;48.914;18.160;2022-09-29T12:49:01;4.3;;;1.2;;
56271;SDS011;42177;48.914;18.160;2022-09-29T12:54:04;2.6;;;1;;
56271;SDS011;42177;48.914;18.160;2022-09-29T12:58:59;2.6;;;1;;
56271;SDS011;42177;48.914;18.160;2022-09-29T13:04:04;3;;;1.1;;
56271;SDS011;42177;48.914;18.160;2022-09-29T13:09:02;3;;;1.1;;
56271;SDS011;42177;48.914;18.160;2022-09-29T13:14:02;3.5;;;1.1;;
56271;SDS011;42177;48.914;18.160;2022-09-29T13:19:07;3.5;;;1.1;;
56271;SDS011;42177;48.914;18.160;2022-09-29T13:24:01;2.7;;;1.3;;
56271;SDS011;42177;48.914;18.160;2022-09-29T13:28:59;2.7;;;1.3;;
56271;SDS011;42177;48.914;18.160;2022-09-29T13:33:59;3;;;1.3;;
56271;SDS011;42177;48.914;18.160;2022-09-29T13:38:58;3;;;1.3;;
56271;SDS011;42177;48.914;18.160;2022-09-29T13:44:31;3.7;;;1.6;;
56271;SDS011;42177;48.914;18.160;2022-09-29T13:49:01;3.7;;;1.6;;
56271;SDS011;42177;48.914;18.160;2022-09-29T13:54:32;5.3;;;1.7;;
56271;SDS011;42177;48.914;18.160;2022-09-29T13:58:59;5.3;;;1.7;;
56271;SDS011;42177;48.914;18.160;2022-09-29T14:04:21;2.3;;;1.3;;
56271;SDS011;42177;48.914;18.160;2022-09-29T14:08:59;2.3;;;1.3;;
56271;SDS011;42177;48.914;18.160;2022-09-29T14:14:00;3.1;;;1.3;;
56271;SDS011;42177;48.914;18.160;2022-09-29T14:19:00;3.1;;;1.3;;
56271;SDS011;42177;48.914;18.160;2022-09-29T14:23:59;4.3;;;1.3;;
56271;SDS011;42177;48.914;18.160;2022-09-29T14:28:58;4.3;;;1.3;;
56271;SDS011;42177;48.914;18.160;2022-09-29T14:33:59;3;;;1.3;;
56271;SDS011;42177;48.914;18.160;2022-09-29T14:38:58;3;;;1.3;;
56271;SDS011;42177;48.914;18.160;2022-09-29T14:44:00;3.5;;;1.5;;
56271;SDS011;42177;48.914;18.160;2022-09-29T14:49:02;3.5;;;1.5;;
56271;SDS011;42177;48.914;18.160;2022-09-29T14:54:00;2.4;;;1.4;;
56271;SDS011;42177;48.914;18.160;2022-09-29T14:59:01;2.4;;;1.4;;
56271;SDS011;42177;48.914;18.160;2022-09-29T15:04:03;1.5;;;1.1;;
56271;SDS011;42177;48.914;18.160;2022-09-29T15:08:59;1.5;;;1.1;;
56271;SDS011;42177;48.914;18.160;2022-09-29T15:13:58;7.3;;;5.4;;
56271;SDS011;42177;48.914;18.160;2022-09-29T15:19:07;7.3;;;5.4;;
56271;SDS011;42177;48.914;18.160;2022-09-29T15:24:01;4.7;;;1.4;;
56271;SDS011;42177;48.914;18.160;2022-09-29T15:28:58;4.7;;;1.4;;
56271;SDS011;42177;48.914;18.160;2022-09-29T15:33:58;3.6;;;1.5;;
56271;SDS011;42177;48.914;18.160;2022-09-29T15:38:59;3.6;;;1.5;;
56271;SDS011;42177;48.914;18.160;2022-09-29T15:43:59;3.5;;;1.4;;
56271;SDS011;42177;48.914;18.160;2022-09-29T15:49:15;3.5;;;1.4;;
56271;SDS011;42177;48.914;18.160;2022-09-29T15:53:59;2.3;;;1.6;;
56271;SDS011;42177;48.914;18.160;2022-09-29T15:58:58;2.3;;;1.6;;
56271;SDS011;42177;48.914;18.160;2022-09-29T16:03:59;3.1;;;1.6;;
56271;SDS011;42177;48.914;18.160;2022-09-29T16:08:59;3.1;;;1.6;;
56271;SDS011;42177;48.914;18.160;2022-09-29T16:13:59;3.9;;;2.6;;
56271;SDS011;42177;48.914;18.160;2022-09-29T16:19:00;3.9;;;2.6;;
56271;SDS011;42177;48.914;18.160;2022-09-29T16:23:59;4.2;;;3;;
56271;SDS011;42177;48.914;18.160;2022-09-29T16:29:01;4.2;;;3;;
56271;SDS011;42177;48.914;18.160;2022-09-29T16:33:59;4.4;;;3.1;;
56271;SDS011;42177;48.914;18.160;2022-09-29T16:38:58;4.4;;;3.1;;
56271;SDS011;42177;48.914;18.160;2022-09-29T16:44:01;8;;;3.6;;
56271;SDS011;42177;48.914;18.160;2022-09-29T16:48:58;8;;;3.6;;
56271;SDS011;42177;48.914;18.160;2022-09-29T16:53:58;9.7;;;4.3;;
56271;SDS011;42177;48.914;18.160;2022-09-29T16:59:01;9.7;;;4.3;;
56271;SDS011;42177;48.914;18.160;2022-09-29T17:03:58;7.2;;;3.9;;
56271;SDS011;42177;48.914;18.160;2022-09-29T17:08:59;7.2;;;3.9;;
56271;SDS011;42177;48.914;18.160;2022-09-29T17:13:58;6;;;3.1;;
56271;SDS011;42177;48.914;18.160;2022-09-29T17:18:59;6;;;3.1;;
56271;SDS011;42177;48.914;18.160;2022-09-29T17:23:59;4.8;;;2.6;;
56271;SDS011;42177;48.914;18.160;2022-09-29T17:28:58;4.8;;;2.6;;
56271;SDS011;42177;48.914;18.160;2022-09-29T17:33:58;5.9;;;3.3;;
56271;SDS011;42177;48.914;18.160;2022-09-29T17:38:59;5.9;;;3.3;;
56271;SDS011;42177;48.914;18.160;2022-09-29T17:43:59;5.8;;;3.3;;
56271;SDS011;42177;48.914;18.160;2022-09-29T17:48:58;5.8;;;3.3;;
56271;SDS011;42177;48.914;18.160;2022-09-29T17:53:58;8.3;;;4.3;;
56271;SDS011;42177;48.914;18.160;2022-09-29T17:58:59;8.3;;;4.3;;
56271;SDS011;42177;48.914;18.160;2022-09-29T18:03:59;7.1;;;4.6;;
56271;SDS011;42177;48.914;18.160;2022-09-29T18:08:58;7.1;;;4.6;;
56271;SDS011;42177;48.914;18.160;2022-09-29T18:13:58;12.5;;;5.1;;
56271;SDS011;42177;48.914;18.160;2022-09-29T18:18:58;12.5;;;5.1;;
56271;SDS011;42177;48.914;18.160;2022-09-29T18:23:59;7.7;;;5.3;;
56271;SDS011;42177;48.914;18.160;2022-09-29T18:28:58;7.7;;;5.3;;
56271;SDS011;42177;48.914;18.160;2022-09-29T18:33:58;5.3;;;4.4;;
56271;SDS011;42177;48.914;18.160;2022-09-29T18:38:59;5.3;;;4.4;;
56271;SDS011;42177;48.914;18.160;2022-09-29T18:43:59;7.1;;;4.2;;
56271;SDS011;42177;48.914;18.160;2022-09-29T18:48:58;7.1;;;4.2;;
56271;SDS011;42177;48.914;18.160;2022-09-29T18:53:58;7.5;;;4.2;;
56271;SDS011;42177;48.914;18.160;2022-09-29T18:58:59;7.5;;;4.2;;
56271;SDS011;42177;48.914;18.160;2022-09-29T19:03:58;8.7;;;4.4;;
56271;SDS011;42177;48.914;18.160;2022-09-29T19:08:59;8.7;;;4.4;;
56271;SDS011;42177;48.914;18.160;2022-09-29T19:13:58;9.4;;;5.3;;
56271;SDS011;42177;48.914;18.160;2022-09-29T19:18:59;9.4;;;5.3;;
56271;SDS011;42177;48.914;18.160;2022-09-29T19:23:59;6.5;;;5.1;;
56271;SDS011;42177;48.914;18.160;2022-09-29T19:28:58;6.5;;;5.1;;
56271;SDS011;42177;48.914;18.160;2022-09-29T19:33:59;8.6;;;5.6;;
56271;SDS011;42177;48.914;18.160;2022-09-29T19:38:59;8.6;;;5.6;;
56271;SDS011;42177;48.914;18.160;2022-09-29T19:43:59;8.2;;;5.7;;
56271;SDS011;42177;48.914;18.160;2022-09-29T19:48:59;8.2;;;5.7;;
56271;SDS011;42177;48.914;18.160;2022-09-29T19:53:59;8.4;;;6.1;;
56271;SDS011;42177;48.914;18.160;2022-09-29T19:58:59;8.4;;;6.1;;
56271;SDS011;42177;48.914;18.160;2022-09-29T20:03:59;6.8;;;4.6;;
56271;SDS011;42177;48.914;18.160;2022-09-29T20:08:58;6.8;;;4.6;;
56271;SDS011;42177;48.914;18.160;2022-09-29T20:13:59;9.2;;;5.4;;
56271;SDS011;42177;48.914;18.160;2022-09-29T20:18:59;9.2;;;5.4;;
56271;SDS011;42177;48.914;18.160;2022-09-29T20:23:59;7.9;;;5.3;;
56271;SDS011;42177;48.914;18.160;2022-09-29T20:28:58;7.9;;;5.3;;
56271;SDS011;42177;48.914;18.160;2022-09-29T20:33:59;7.9;;;4.9;;
56271;SDS011;42177;48.914;18.160;2022-09-29T20:38:59;7.9;;;4.9;;
56271;SDS011;42177;48.914;18.160;2022-09-29T20:43:59;8.1;;;5.3;;
56271;SDS011;42177;48.914;18.160;2022-09-29T20:48:59;8.1;;;5.3;;
56271;SDS011;42177;48.914;18.160;2022-09-29T20:53:59;12;;;8.2;;
56271;SDS011;42177;48.914;18.160;2022-09-29T20:58:59;12;;;8.2;;
56271;SDS011;42177;48.914;18.160;2022-09-29T21:03:59;9.6;;;6;;
56271;SDS011;42177;48.914;18.160;2022-09-29T21:08:59;9.6;;;6;;
56271;SDS011;42177;48.914;18.160;2022-09-29T21:13:59;10.6;;;6.3;;
56271;SDS011;42177;48.914;18.160;2022-09-29T21:18:59;10.6;;;6.3;;
56271;SDS011;42177;48.914;18.160;2022-09-29T21:23:59;9.6;;;6.4;;
56271;SDS011;42177;48.914;18.160;2022-09-29T21:28:59;9.6;;;6.4;;
56271;SDS011;42177;48.914;18.160;2022-09-29T21:33:59;11.2;;;7;;
56271;SDS011;42177;48.914;18.160;2022-09-29T21:38:59;11.2;;;7;;
56271;SDS011;42177;48.914;18.160;2022-09-29T21:43:59;9.6;;;6.7;;
56271;SDS011;42177;48.914;18.160;2022-09-29T21:48:59;9.6;;;6.7;;
56271;SDS011;42177;48.914;18.160;2022-09-29T21:53:59;9.4;;;5.9;;
56271;SDS011;42177;48.914;18.160;2022-09-29T21:58:59;9.4;;;5.9;;
56271;SDS011;42177;48.914;18.160;2022-09-29T22:03:59;9.4;;;5.8;;
56271;SDS011;42177;48.914;18.160;2022-09-29T22:08:59;9.4;;;5.8;;
56271;SDS011;42177;48.914;18.160;2022-09-29T22:13:59;12.1;;;7.1;;
56271;SDS011;42177;48.914;18.160;2022-09-29T22:18:59;12.1;;;7.1;;
56271;SDS011;42177;48.914;18.160;2022-09-29T22:23:59;11.2;;;7.3;;
56271;SDS011;42177;48.914;18.160;2022-09-29T22:28:59;11.2;;;7.3;;
56271;SDS011;42177;48.914;18.160;2022-09-29T22:34:00;11.6;;;7.7;;
56271;SDS011;42177;48.914;18.160;2022-09-29T22:38:59;11.6;;;7.7;;
56271;SDS011;42177;48.914;18.160;2022-09-29T22:43:59;10.9;;;7.8;;
56271;SDS011;42177;48.914;18.160;2022-09-29T22:48:59;10.9;;;7.8;;
56271;SDS011;42177;48.914;18.160;2022-09-29T22:53:59;12.1;;;7.7;;
56271;SDS011;42177;48.914;18.160;2022-09-29T22:58:59;12.1;;;7.7;;
56271;SDS011;42177;48.914;18.160;2022-09-29T23:03:59;12.7;;;7.8;;
56271;SDS011;42177;48.914;18.160;2022-09-29T23:08:59;12.7;;;7.8;;
56271;SDS011;42177;48.914;18.160;2022-09-29T23:13:59;9.8;;;6.9;;
56271;SDS011;42177;48.914;18.160;2022-09-29T23:18:59;9.8;;;6.9;;
56271;SDS011;42177;48.914;18.160;2022-09-29T23:23:59;13.6;;;8.2;;
56271;SDS011;42177;48.914;18.160;2022-09-29T23:28:59;13.6;;;8.2;;
56271;SDS011;42177;48.914;18.160;2022-09-29T23:33:59;11.5;;;7.6;;
56271;SDS011;42177;48.914;18.160;2022-09-29T23:38:59;11.5;;;7.6;;
56271;SDS011;42177;48.914;18.160;2022-09-29T23:43:59;11.7;;;7.3;;
56271;SDS011;42177;48.914;18.160;2022-09-29T23:48:59;11.7;;;7.3;;
56271;SDS011;42177;48.914;18.160;2022-09-29T23:53:59;11.3;;;7.2;;
56271;SDS011;42177;48.914;18.160;2022-09-29T23:58:59;11.3;;;7.2;;
